Latest Weather Observations for Friendly Beaches

IDT60801

Issued at 11:31 am EDT Saturday 19 January 2019 (issued every 10 minutes, with the page automatically refreshed every 10 minutes)

About weather observations | Map of weather stations | Latest weather observations for TAS | Other Formats
Station Details ID: 092114 Name: FRIENDLY BEACHES Lat: -42.00 Lon: 148.28 Height: 55.0 m
Data from the previous 72 hours. | See also: Recent months at Friendly Beaches
Date/Time
EDT
Temp
°C
App
Temp
°C
Dew
Point
°C
Rel
Hum
%
Delta-T
°C
Wind Press
QNH
hPa
Press
MSL
hPa
Rain since
9am
mm
Dir  Spd
km/h
Gust
km/h
Spd
kts
Gust
kts
19/11:30am 22.0 19.4 7.8 40 7.4 WSW 11 22 6 12 1014.8 1014.7 0.0
19/11:00am 21.4 18.8 7.6 41 7.2 WSW 11 22 6 12 1014.9 1014.8 0.0
19/10:30am 20.3 17.9 7.0 42 6.8 WSW 9 20 5 11 1015.2 1015.1 0.0
19/10:00am 19.4 16.7 7.2 45 6.2 WSW 11 20 6 11 1015.1 1015.0 0.0
19/09:30am 18.8 16.2 7.6 48 5.7 SW 11 22 6 12 1014.9 1014.8 0.0
19/09:00am 17.6 15.0 7.9 53 4.9 W 11 20 6 11 1014.9 1014.8 0.0
19/08:30am 16.9 14.2 7.5 54 4.7 WSW 11 19 6 10 1014.9 1014.8 0.0
19/08:00am 16.4 14.2 7.9 57 4.3 WSW 9 17 5 9 1014.5 1014.4 0.0
19/07:30am 15.4 13.2 7.9 61 3.8 W 9 17 5 9 1014.0 1013.9 0.0
19/07:00am 14.3 12.5 7.1 62 3.5 W 6 13 3 7 1013.3 1013.2 0.0
19/06:30am 14.0 10.4 6.8 62 3.5 WSW 15 24 8 13 1012.4 1012.3 0.0
19/06:00am 13.9 10.6 6.3 60 3.7 WSW 13 28 7 15 1011.8 1011.7 0.0
19/05:30am 14.5 9.4 6.1 57 4.0 SW 22 39 12 21 1011.2 1011.1 0.0
19/05:00am 15.1 9.6 5.9 54 4.4 SW 24 43 13 23 1011.2 1011.1 0.0
19/04:30am 14.7 9.6 6.0 56 4.2 SW 22 41 12 22 1010.5 1010.4 0.0
19/04:00am 14.9 10.0 7.0 59 3.9 SW 22 35 12 19 1010.2 1010.1 0.0
19/03:30am 14.5 10.6 7.1 61 3.6 WSW 17 32 9 17 1009.5 1009.4 0.0
19/03:00am 14.9 11.4 7.2 60 3.8 WSW 15 26 8 14 1009.6 1009.5 0.0
19/02:30am 15.4 12.3 7.4 59 4.0 WSW 13 32 7 17 1009.5 1009.4 0.0
19/02:00am 15.8 11.8 8.1 60 3.9 WSW 19 32 10 17 1009.2 1009.1 0.0
19/01:30am 15.7 12.0 8.0 60 3.9 WSW 17 37 9 20 1008.8 1008.7 0.0
19/01:00am 16.3 12.6 7.8 57 4.3 WSW 17 35 9 19 1008.1 1008.0 0.0
19/12:30am 16.7 11.7 8.1 57 4.4 WSW 24 37 13 20 1007.5 1007.4 0.0
19/12:00am 16.9 13.1 9.8 63 3.7 SW 20 37 11 20 1006.5 1006.3 0.0
 
Date/Time
EDT
Temp
°C
App
Temp
°C
Dew
Point
°C
Rel
Hum
%
Delta-T
°C
Wind Press
QNH
hPa
Press
MSL
hPa
Rain since
9am
mm
Dir  Spd
km/h
Gust
km/h
Spd
kts
Gust
kts
18/11:30pm 17.5 13.2 10.9 65 3.6 SW 24 44 13 24 1005.8 1005.6 0.0
18/11:24pm 17.7 13.6 11.3 66 3.5 SW 24 44 13 24 1005.6 1005.4 0.0
18/11:00pm 16.0 16.2 15.8 99 0.1 SW 9 15 5 8 1005.3 1005.1 0.0
18/10:30pm 15.8 16.6 15.8 100 0.0 WNW 6 6 3 3 1004.1 1003.9 0.0
18/10:00pm 16.1 17.3 15.8 98 0.2 WSW 4 6 2 3 1003.8 1003.6 0.0
18/09:30pm 16.6 17.6 16.3 98 0.2 WSW 6 9 3 5 1002.8 1002.6 0.0
18/09:00pm 17.5 18.9 16.4 93 0.7 SW 4 7 2 4 1002.6 1002.4 0.0
18/08:30pm 18.1 19.3 16.8 92 0.8 SW 6 9 3 5 1002.3 1002.1 0.0
18/08:00pm 18.9 20.3 17.4 91 0.9 SW 6 13 3 7 1002.2 1002.0 0.0
18/07:30pm 18.6 19.8 17.3 92 0.8 S 7 13 4 7 1002.2 1002.0 0.0
18/07:00pm 19.1 19.7 17.6 91 0.9 SSE 11 19 6 10 1001.9 1001.7 0.0
18/06:30pm 19.0 17.1 17.7 92 0.8 SSE 24 35 13 19 1001.6 1001.4 0.0
18/06:00pm 19.2 17.6 18.4 95 0.5 SSE 24 32 13 17 1001.5 1001.3 0.0
18/05:30pm 20.5 20.1 19.0 91 0.9 SSE 19 30 10 16 1001.4 1001.2 0.0
18/05:00pm 21.6 22.3 19.7 89 1.2 ESE 15 24 8 13 1001.1 1001.0 0.0
18/04:30pm 21.3 22.3 19.4 89 1.2 E 13 20 7 11 1001.7 1001.5 0.0
18/04:00pm 21.8 23.0 19.9 89 1.2 ENE 13 20 7 11 1001.9 1001.7 0.0
18/03:30pm 21.6 22.5 19.2 86 1.5 ESE 13 19 7 10 1003.0 1002.8 0.0
18/03:00pm 23.8 24.1 19.5 77 2.8 ENE 17 26 9 14 1003.1 1002.9 0.0
18/02:30pm 20.5 20.3 18.6 89 1.2 ENE 17 22 9 12 1004.0 1003.8 0.0
18/02:00pm 21.1 21.8 18.9 87 1.4 ENE 13 19 7 10 1004.8 1004.6 0.0
18/01:30pm 20.7 21.2 18.3 86 1.5 E 13 20 7 11 1005.2 1005.0 0.0
18/01:00pm 22.6 23.3 18.8 79 2.4 E 13 20 7 11 1005.4 1005.2 0.0
18/12:30pm 21.9 23.3 18.7 82 2.0 E 9 15 5 8 1006.1 1005.9 0.0
18/12:00pm 20.9 21.7 18.1 84 1.7 E 11 17 6 9 1006.2 1006.0 0.0
18/11:30am 21.2 22.3 18.8 86 1.5 E 11 15 6 8 1006.6 1006.4 0.0
18/11:00am 20.1 20.8 17.9 87 1.4 ESE 11 17 6 9 1006.9 1006.7 0.0
18/10:30am 20.6 21.5 18.5 88 1.3 E 11 19 6 10 1006.5 1006.3 0.0
18/10:00am 21.6 23.0 18.6 83 1.9 ESE 9 15 5 8 1006.6 1006.4 0.0
18/09:30am 21.7 23.0 19.3 86 1.5 SE 11 15 6 8 1006.6 1006.4 0.0
18/09:00am 21.0 23.2 19.1 89 1.2 SE 6 7 3 4 1006.3 1006.1 0.6
18/08:30am 19.3 21.5 18.3 94 0.6 SSW 4 7 2 4 1006.2 1006.0 0.6
18/08:00am 18.4 20.2 18.4 100 0.0 SSW 6 7 3 4 1005.6 1005.4 0.6
18/07:30am 18.1 20.6 18.1 100 0.0 SW 2 4 1 2 1005.2 1005.0 0.6
18/07:00am 17.9 - - - - W 2 4 1 2 1004.9 1004.7 0.6
18/06:30am 17.7 - - - - W 9 15 5 8 1004.9 1004.7 0.6
18/06:00am 17.5 19.3 17.5 100 0.0 NNW 4 6 2 3 1004.7 1004.5 0.6
18/05:30am 17.4 19.6 17.4 100 0.0 NE 2 4 1 2 1004.3 1004.1 0.6
18/05:00am 17.5 19.3 17.5 100 0.0 SSE 4 7 2 4 1004.1 1003.9 0.6
18/04:30am 17.7 18.7 17.7 100 0.0 SSE 9 13 5 7 1004.1 1003.9 0.6
18/04:00am 17.8 18.4 17.8 100 0.0 SSE 11 15 6 8 1004.2 1004.0 0.6
18/03:30am 17.9 19.3 17.9 100 0.0 ESE 7 11 4 6 1004.0 1003.8 0.6
18/03:00am 18.4 20.0 18.2 99 0.1 SSE 7 11 4 6 1004.3 1004.1 0.6
18/02:30am 18.8 20.9 18.0 95 0.5 SSE 4 9 2 5 1004.6 1004.4 0.6
18/02:00am 18.7 20.4 18.0 96 0.4 S 6 9 3 5 1004.7 1004.5 0.6
18/01:30am 20.1 22.1 17.9 87 1.4 E 4 6 2 3 1004.9 1004.7 0.6
18/01:00am 21.0 23.1 18.0 83 1.9 NE 4 6 2 3 1005.3 1005.1 0.6
18/12:30am 20.8 23.6 18.0 84 1.7 CALM 0 0 0 0 1005.0 1004.8 0.6
18/12:00am 20.2 22.3 18.0 87 1.4 SE 4 7 2 4 1005.3 1005.1 0.6
 
Date/Time
EDT
Temp
°C
App
Temp
°C
Dew
Point
°C
Rel
Hum
%
Delta-T
°C
Wind Press
QNH
hPa
Press
MSL
hPa
Rain since
9am
mm
Dir  Spd
km/h
Gust
km/h
Spd
kts
Gust
kts
17/11:30pm 21.1 23.1 17.9 82 2.0 SSW 4 6 2 3 1005.5 1005.3 0.6
17/11:00pm 23.1 24.7 18.2 74 3.1 WNW 7 11 4 6 1005.6 1005.4 0.6
17/10:30pm 22.1 23.4 18.5 80 2.3 WNW 9 13 5 7 1005.8 1005.6 0.6
17/10:00pm 19.0 20.5 17.7 92 0.8 S 6 9 3 5 1006.1 1005.9 0.6
17/09:30pm 19.2 20.5 17.5 90 1.0 SSW 7 11 4 6 1005.9 1005.7 0.6
17/09:00pm 19.8 22.1 17.8 88 1.2 NW 2 6 1 3 1005.3 1005.1 0.6
17/08:30pm 19.6 19.7 17.4 87 1.3 NNE 13 17 7 9 1005.2 1005.0 0.6
17/08:00pm 22.5 24.0 17.6 74 3.1 ESE 6 11 3 6 1005.1 1004.9 0.6
17/07:30pm 25.9 26.3 19.1 66 4.4 NNW 15 26 8 14 1004.6 1004.4 0.6
17/07:00pm 26.0 25.6 19.4 67 4.3 N 20 35 11 19 1004.1 1003.9 0.6
17/06:30pm 27.0 27.4 19.9 65 4.6 NNE 17 24 9 13 1004.0 1003.8 0.6
17/06:00pm 23.0 21.7 18.1 74 3.1 NNE 22 33 12 18 1004.0 1003.8 0.6
17/05:30pm 22.7 21.0 18.0 75 2.9 NNE 24 41 13 22 1004.2 1004.0 0.6
17/05:00pm 24.0 22.6 18.9 73 3.3 NNE 24 35 13 19 1004.3 1004.1 0.6
17/04:30pm 24.9 22.1 19.1 70 3.7 NNE 32 46 17 25 1004.5 1004.3 0.6
17/04:27pm 25.2 23.3 19.3 70 3.8 NNE 28 46 15 25 1004.5 1004.3 0.6
17/04:00pm 24.4 22.6 19.5 74 3.2 NNE 28 44 15 24 1004.9 1004.7 0.6
17/03:30pm 22.5 19.7 19.1 81 2.2 NNE 32 48 17 26 1004.9 1004.7 0.6
17/03:00pm 23.4 21.0 19.1 77 2.7 NNE 30 44 16 24 1005.3 1005.1 0.6
17/02:30pm 24.3 22.3 20.0 77 2.8 NNE 30 52 16 28 1005.6 1005.4 0.6
17/02:14pm 24.3 22.3 20.0 77 2.8 NNE 30 48 16 26 1005.9 1005.7 0.6
17/02:00pm 24.3 23.2 20.2 78 2.7 NNE 26 50 14 27 1006.0 1005.8 0.6
17/01:54pm 23.4 21.5 19.3 78 2.6 NNE 28 50 15 27 1006.0 1005.8 0.6
17/01:52pm 23.3 21.1 18.8 76 2.9 NNE 28 44 15 24 1006.0 1005.8 0.6
17/01:30pm 22.5 23.2 18.9 80 2.3 NNE 13 22 7 12 1006.7 1006.5 0.6
17/01:00pm 19.5 19.1 18.0 91 0.9 NNE 17 24 9 13 1006.6 1006.4 0.6
17/12:30pm 19.3 21.8 18.1 93 0.7 NNE 2 6 1 3 1007.3 1007.2 0.6
17/12:00pm 18.1 19.6 17.5 96 0.4 ESE 6 9 3 5 1007.3 1007.2 0.6
17/11:30am 18.1 19.4 17.6 97 0.3 ESE 7 9 4 5 1007.9 1007.8 0.6
17/11:00am 17.7 18.5 17.2 97 0.3 ENE 9 13 5 7 1008.0 1007.9 0.6
17/10:30am 17.9 19.0 17.1 95 0.5 ESE 7 9 4 5 1008.2 1008.1 0.6
17/10:00am 18.5 20.6 18.2 98 0.2 ENE 4 7 2 4 1008.7 1008.6 0.6
17/09:30am 17.1 18.6 16.6 97 0.3 SE 4 7 2 4 1009.3 1009.2 0.6
17/09:00am 16.3 16.9 15.7 96 0.4 NNE 7 13 4 7 1010.0 1009.9 2.8
17/08:30am 16.2 16.3 15.4 95 0.5 NE 9 19 5 10 1009.3 1009.2 2.6
17/08:00am 17.0 17.8 16.4 96 0.4 NE 7 11 4 6 1009.5 1009.4 1.8
17/07:30am 17.0 17.1 16.4 96 0.4 NNE 11 15 6 8 1009.7 1009.6 0.8
17/07:00am 16.9 16.9 16.3 96 0.4 NNE 11 15 6 8 1009.7 1009.6 0.4
17/06:30am 17.1 17.9 15.8 92 0.8 NE 6 11 3 6 1009.2 1009.1 0.0
17/06:00am 17.3 17.9 15.3 88 1.2 NW 6 7 3 4 1009.4 1009.3 0.0
17/05:30am 17.4 17.8 15.2 87 1.3 SSE 7 13 4 7 1008.4 1008.3 0.0
17/05:00am 17.0 18.0 15.3 90 1.0 SE 4 6 2 3 1007.6 1007.5 0.0
17/04:30am 17.1 18.3 14.9 87 1.3 SE 2 6 1 3 1007.3 1007.2 0.0
17/04:00am 17.0 18.2 15.0 88 1.2 ENE 2 6 1 3 1007.5 1007.4 0.0
17/03:30am 16.8 18.4 15.0 89 1.0 CALM 0 0 0 0 1007.6 1007.5 0.0
17/03:00am 17.1 17.6 15.1 88 1.2 W 6 7 3 4 1008.1 1008.0 0.0
17/02:30am 17.9 18.8 15.2 84 1.6 NW 4 9 2 5 1008.5 1008.4 0.0
17/02:00am 18.1 18.2 15.5 85 1.5 N 9 17 5 9 1009.3 1009.2 0.0
17/01:30am 18.2 18.0 15.6 85 1.5 N 11 20 6 11 1009.4 1009.3 0.0
17/01:00am 17.9 16.9 15.7 87 1.3 N 15 26 8 14 1009.0 1008.9 0.0
17/12:30am 17.5 17.2 15.5 88 1.2 N 11 20 6 11 1009.6 1009.5 0.0
17/12:00am 17.6 16.5 15.4 87 1.3 NNE 15 24 8 13 1009.6 1009.5 0.0
 
Date/Time
EDT
Temp
°C
App
Temp
°C
Dew
Point
°C
Rel
Hum
%
Delta-T
°C
Wind Press
QNH
hPa
Press
MSL
hPa
Rain since
9am
mm
Dir  Spd
km/h
Gust
km/h
Spd
kts
Gust
kts
16/11:30pm 17.7 16.9 15.1 85 1.5 NNE 13 24 7 13 1010.3 1010.2 0.0
16/11:00pm 17.7 16.3 14.6 82 1.8 N 15 28 8 15 1011.4 1011.3 0.0
16/10:30pm 17.7 16.5 15.0 84 1.6 NNE 15 24 8 13 1011.7 1011.6 0.0
16/10:00pm 17.6 17.0 14.7 83 1.7 NNE 11 19 6 10 1011.7 1011.6 0.0
16/09:30pm 17.5 16.6 13.8 79 2.1 NNE 11 19 6 10 1012.1 1012.0 0.0
16/09:00pm 17.3 16.9 14.0 81 1.9 ENE 9 13 5 7 1011.3 1011.2 0.0
16/08:30pm 17.3 16.4 13.6 79 2.1 NE 11 17 6 9 1010.9 1010.8 0.0
16/08:00pm 17.7 17.4 13.2 75 2.5 NE 7 15 4 8 1012.0 1011.9 0.0
16/07:30pm 18.2 17.5 13.3 73 2.8 NE 9 15 5 8 1012.3 1012.2 0.0
16/07:00pm 18.7 17.2 13.1 70 3.2 NE 13 20 7 11 1012.1 1012.0 0.0
16/06:30pm 18.5 17.8 13.1 71 3.1 NE 9 15 5 8 1012.3 1012.2 0.0
16/06:00pm 18.8 17.6 12.8 68 3.4 ENE 11 17 6 9 1012.2 1012.1 0.0
16/05:30pm 19.1 18.0 13.1 68 3.4 ENE 11 17 6 9 1012.3 1012.2 0.0
16/05:00pm 18.9 17.8 13.1 69 3.3 ENE 11 15 6 8 1012.3 1012.2 0.0
16/04:30pm 19.0 18.2 13.0 68 3.4 ENE 9 13 5 7 1012.0 1011.9 0.0
16/04:00pm 19.5 18.9 13.4 68 3.5 E 9 13 5 7 1011.9 1011.8 0.0
16/03:30pm 19.7 18.2 13.2 66 3.7 ESE 13 17 7 9 1011.8 1011.7 0.0
16/03:00pm 20.3 18.9 13.3 64 4.0 SE 13 19 7 10 1011.9 1011.8 0.0
16/02:30pm 20.3 18.9 13.3 64 4.0 SE 13 19 7 10 1012.0 1011.9 0.0
16/02:00pm 20.2 18.4 13.4 65 3.9 SE 15 20 8 11 1012.0 1011.9 0.0
16/01:30pm 19.6 18.2 13.5 68 3.5 SE 13 17 7 9 1012.0 1011.9 0.0
16/01:00pm 19.1 17.7 13.5 70 3.2 SE 13 20 7 11 1012.0 1011.9 0.0
16/12:30pm 18.8 17.0 13.4 71 3.1 SSE 15 20 8 11 1012.0 1011.9 0.0
16/12:00pm 18.4 16.5 13.1 71 3.0 SSE 15 20 8 11 1012.1 1012.0 0.0

Other Formats:

Comma delimited format used in spreadsheet applications
http://www.bom.gov.au/fwo/IDT60801/IDT60801.94987.axf

JavaScript Object Notation format (JSON) in row-major order
http://www.bom.gov.au/fwo/IDT60801/IDT60801.94987.json